sensor_id;sensor_type;location;lat;lon;timestamp;P1;durP1;ratioP1;P2;durP2;ratioP2
8331;SDS011;4203;48.144;14.118;2023-03-14T00:00:55;10.67;;;9.57;;
8331;SDS011;4203;48.144;14.118;2023-03-14T00:03:23;10.80;;;9.70;;
8331;SDS011;4203;48.144;14.118;2023-03-14T00:05:52;13.73;;;10.00;;
8331;SDS011;4203;48.144;14.118;2023-03-14T00:08:19;12.83;;;9.63;;
8331;SDS011;4203;48.144;14.118;2023-03-14T00:10:46;15.07;;;10.13;;
8331;SDS011;4203;48.144;14.118;2023-03-14T00:13:13;13.10;;;9.80;;
8331;SDS011;4203;48.144;14.118;2023-03-14T00:15:41;10.00;;;9.00;;
8331;SDS011;4203;48.144;14.118;2023-03-14T00:18:08;13.10;;;10.70;;
8331;SDS011;4203;48.144;14.118;2023-03-14T00:20:35;10.17;;;9.00;;
8331;SDS011;4203;48.144;14.118;2023-03-14T00:23:04;11.97;;;9.57;;
8331;SDS011;4203;48.144;14.118;2023-03-14T00:25:31;12.40;;;10.17;;
8331;SDS011;4203;48.144;14.118;2023-03-14T00:27:58;10.70;;;9.43;;
8331;SDS011;4203;48.144;14.118;2023-03-14T00:30:25;10.97;;;9.87;;
8331;SDS011;4203;48.144;14.118;2023-03-14T00:32:52;12.47;;;10.47;;
8331;SDS011;4203;48.144;14.118;2023-03-14T00:35:20;13.57;;;10.77;;
8331;SDS011;4203;48.144;14.118;2023-03-14T00:37:47;14.90;;;10.60;;
8331;SDS011;4203;48.144;14.118;2023-03-14T00:40:16;11.93;;;10.40;;
8331;SDS011;4203;48.144;14.118;2023-03-14T00:42:43;20.47;;;10.90;;
8331;SDS011;4203;48.144;14.118;2023-03-14T00:45:10;12.27;;;10.90;;
8331;SDS011;4203;48.144;14.118;2023-03-14T00:47:37;12.60;;;11.27;;
8331;SDS011;4203;48.144;14.118;2023-03-14T00:50:06;13.30;;;10.83;;
8331;SDS011;4203;48.144;14.118;2023-03-14T00:52:34;11.30;;;10.10;;
8331;SDS011;4203;48.144;14.118;2023-03-14T00:55:01;11.50;;;10.30;;
8331;SDS011;4203;48.144;14.118;2023-03-14T00:57:30;11.13;;;10.07;;
8331;SDS011;4203;48.144;14.118;2023-03-14T00:59:57;12.33;;;10.27;;
8331;SDS011;4203;48.144;14.118;2023-03-14T01:02:24;11.80;;;9.63;;
8331;SDS011;4203;48.144;14.118;2023-03-14T01:04:51;11.63;;;10.43;;
8331;SDS011;4203;48.144;14.118;2023-03-14T01:07:19;12.63;;;10.57;;
8331;SDS011;4203;48.144;14.118;2023-03-14T01:09:46;11.73;;;10.47;;
8331;SDS011;4203;48.144;14.118;2023-03-14T01:12:13;15.67;;;12.07;;
8331;SDS011;4203;48.144;14.118;2023-03-14T01:14:42;17.20;;;12.63;;
8331;SDS011;4203;48.144;14.118;2023-03-14T01:17:09;16.03;;;12.47;;
8331;SDS011;4203;48.144;14.118;2023-03-14T01:19:36;12.20;;;10.63;;
8331;SDS011;4203;48.144;14.118;2023-03-14T01:22:03;13.50;;;10.47;;
8331;SDS011;4203;48.144;14.118;2023-03-14T01:24:30;11.60;;;10.10;;
8331;SDS011;4203;48.144;14.118;2023-03-14T01:26:58;11.17;;;8.90;;
8331;SDS011;4203;48.144;14.118;2023-03-14T01:29:25;12.43;;;9.20;;
8331;SDS011;4203;48.144;14.118;2023-03-14T01:31:54;9.83;;;8.80;;
8331;SDS011;4203;48.144;14.118;2023-03-14T01:34:21;10.93;;;9.00;;
8331;SDS011;4203;48.144;14.118;2023-03-14T01:36:48;8.97;;;7.30;;
8331;SDS011;4203;48.144;14.118;2023-03-14T01:39:15;7.93;;;6.67;;
8331;SDS011;4203;48.144;14.118;2023-03-14T01:41:43;6.67;;;5.97;;
8331;SDS011;4203;48.144;14.118;2023-03-14T01:44:10;6.70;;;5.70;;
8331;SDS011;4203;48.144;14.118;2023-03-14T01:46:38;7.90;;;5.60;;
8331;SDS011;4203;48.144;14.118;2023-03-14T01:49:09;8.90;;;6.00;;
8331;SDS011;4203;48.144;14.118;2023-03-14T01:51:42;6.87;;;5.70;;
8331;SDS011;4203;48.144;14.118;2023-03-14T01:54:15;6.23;;;5.63;;
8331;SDS011;4203;48.144;14.118;2023-03-14T01:56:46;6.73;;;5.90;;
8331;SDS011;4203;48.144;14.118;2023-03-14T01:59:16;8.57;;;7.23;;
8331;SDS011;4203;48.144;14.118;2023-03-14T02:01:45;11.57;;;8.83;;
8331;SDS011;4203;48.144;14.118;2023-03-14T02:04:16;9.97;;;7.63;;
8331;SDS011;4203;48.144;14.118;2023-03-14T02:06:50;7.23;;;6.33;;
8331;SDS011;4203;48.144;14.118;2023-03-14T02:09:19;6.47;;;5.77;;
8331;SDS011;4203;48.144;14.118;2023-03-14T02:11:47;8.23;;;6.17;;
8331;SDS011;4203;48.144;14.118;2023-03-14T02:14:21;7.67;;;5.87;;
8331;SDS011;4203;48.144;14.118;2023-03-14T02:16:56;7.80;;;5.60;;
8331;SDS011;4203;48.144;14.118;2023-03-14T02:19:30;8.23;;;5.70;;
8331;SDS011;4203;48.144;14.118;2023-03-14T02:22:08;5.40;;;4.90;;
8331;SDS011;4203;48.144;14.118;2023-03-14T02:24:38;5.67;;;5.03;;
8331;SDS011;4203;48.144;14.118;2023-03-14T02:27:13;4.23;;;3.93;;
8331;SDS011;4203;48.144;14.118;2023-03-14T02:29:45;8.43;;;3.80;;
8331;SDS011;4203;48.144;14.118;2023-03-14T02:32:17;3.00;;;2.80;;
8331;SDS011;4203;48.144;14.118;2023-03-14T02:34:48;3.10;;;2.77;;
8331;SDS011;4203;48.144;14.118;2023-03-14T02:37:19;2.57;;;2.40;;
8331;SDS011;4203;48.144;14.118;2023-03-14T02:39:47;2.90;;;2.70;;
8331;SDS011;4203;48.144;14.118;2023-03-14T02:42:16;2.80;;;2.60;;
8331;SDS011;4203;48.144;14.118;2023-03-14T02:44:48;3.03;;;2.57;;
8331;SDS011;4203;48.144;14.118;2023-03-14T02:47:18;2.80;;;2.60;;
8331;SDS011;4203;48.144;14.118;2023-03-14T02:49:48;3.10;;;2.90;;
8331;SDS011;4203;48.144;14.118;2023-03-14T02:52:17;2.60;;;2.40;;
8331;SDS011;4203;48.144;14.118;2023-03-14T02:54:44;2.63;;;2.47;;
8331;SDS011;4203;48.144;14.118;2023-03-14T02:57:11;2.73;;;2.53;;
8331;SDS011;4203;48.144;14.118;2023-03-14T02:59:40;2.60;;;2.50;;
8331;SDS011;4203;48.144;14.118;2023-03-14T03:02:07;3.47;;;3.17;;
8331;SDS011;4203;48.144;14.118;2023-03-14T03:04:34;2.87;;;2.57;;
8331;SDS011;4203;48.144;14.118;2023-03-14T03:07:02;2.90;;;2.40;;
8331;SDS011;4203;48.144;14.118;2023-03-14T03:09:29;2.77;;;2.23;;
8331;SDS011;4203;48.144;14.118;2023-03-14T03:11:56;2.60;;;2.40;;
8331;SDS011;4203;48.144;14.118;2023-03-14T03:14:23;2.77;;;2.57;;
8331;SDS011;4203;48.144;14.118;2023-03-14T03:16:52;2.50;;;2.27;;
8331;SDS011;4203;48.144;14.118;2023-03-14T03:19:19;2.43;;;2.20;;
8331;SDS011;4203;48.144;14.118;2023-03-14T03:21:47;3.47;;;2.30;;
8331;SDS011;4203;48.144;14.118;2023-03-14T03:24:14;2.07;;;1.97;;
8331;SDS011;4203;48.144;14.118;2023-03-14T03:26:41;2.20;;;2.10;;
8331;SDS011;4203;48.144;14.118;2023-03-14T03:29:09;2.47;;;2.23;;
8331;SDS011;4203;48.144;14.118;2023-03-14T03:31:36;2.50;;;2.40;;
8331;SDS011;4203;48.144;14.118;2023-03-14T03:34:05;2.67;;;2.47;;
8331;SDS011;4203;48.144;14.118;2023-03-14T03:36:32;2.80;;;2.60;;
8331;SDS011;4203;48.144;14.118;2023-03-14T03:39:00;3.37;;;2.50;;
8331;SDS011;4203;48.144;14.118;2023-03-14T03:41:27;2.47;;;2.37;;
8331;SDS011;4203;48.144;14.118;2023-03-14T03:43:54;2.60;;;2.40;;
8331;SDS011;4203;48.144;14.118;2023-03-14T03:46:22;3.07;;;2.77;;
8331;SDS011;4203;48.144;14.118;2023-03-14T03:48:54;2.57;;;2.37;;
8331;SDS011;4203;48.144;14.118;2023-03-14T03:51:24;2.50;;;2.30;;
8331;SDS011;4203;48.144;14.118;2023-03-14T03:53:51;2.23;;;2.13;;
8331;SDS011;4203;48.144;14.118;2023-03-14T03:56:18;2.57;;;2.37;;
8331;SDS011;4203;48.144;14.118;2023-03-14T03:58:45;2.83;;;2.00;;
8331;SDS011;4203;48.144;14.118;2023-03-14T04:01:13;2.43;;;2.33;;
8331;SDS011;4203;48.144;14.118;2023-03-14T04:03:40;2.60;;;2.40;;
8331;SDS011;4203;48.144;14.118;2023-03-14T04:06:08;2.40;;;2.30;;
8331;SDS011;4203;48.144;14.118;2023-03-14T04:08:38;2.20;;;2.00;;
8331;SDS011;4203;48.144;14.118;2023-03-14T04:11:08;2.00;;;1.90;;
8331;SDS011;4203;48.144;14.118;2023-03-14T04:13:36;2.73;;;2.07;;
8331;SDS011;4203;48.144;14.118;2023-03-14T04:16:03;1.97;;;1.77;;
8331;SDS011;4203;48.144;14.118;2023-03-14T04:18:36;2.40;;;2.20;;
8331;SDS011;4203;48.144;14.118;2023-03-14T04:21:03;2.30;;;2.13;;
8331;SDS011;4203;48.144;14.118;2023-03-14T04:23:30;2.27;;;2.10;;
8331;SDS011;4203;48.144;14.118;2023-03-14T04:26:00;2.20;;;2.00;;
8331;SDS011;4203;48.144;14.118;2023-03-14T04:28:27;2.10;;;2.00;;
8331;SDS011;4203;48.144;14.118;2023-03-14T04:30:54;2.27;;;2.00;;
8331;SDS011;4203;48.144;14.118;2023-03-14T04:33:22;2.17;;;1.97;;
8331;SDS011;4203;48.144;14.118;2023-03-14T04:35:52;1.63;;;1.53;;
8331;SDS011;4203;48.144;14.118;2023-03-14T04:38:20;1.20;;;1.20;;
8331;SDS011;4203;48.144;14.118;2023-03-14T04:40:47;0.93;;;0.93;;
8331;SDS011;4203;48.144;14.118;2023-03-14T04:43:16;1.05;;;0.88;;
8331;SDS011;4203;48.144;14.118;2023-03-14T04:45:43;0.80;;;0.80;;
8331;SDS011;4203;48.144;14.118;2023-03-14T04:48:11;0.90;;;0.90;;
8331;SDS011;4203;48.144;14.118;2023-03-14T04:50:39;0.90;;;0.90;;
8331;SDS011;4203;48.144;14.118;2023-03-14T04:53:07;0.90;;;0.90;;
8331;SDS011;4203;48.144;14.118;2023-03-14T04:55:34;0.90;;;0.90;;
8331;SDS011;4203;48.144;14.118;2023-03-14T04:58:01;1.08;;;0.90;;
8331;SDS011;4203;48.144;14.118;2023-03-14T05:00:30;1.33;;;0.93;;
8331;SDS011;4203;48.144;14.118;2023-03-14T05:02:57;0.52;;;0.52;;
8331;SDS011;4203;48.144;14.118;2023-03-14T05:05:24;0.70;;;0.70;;
8331;SDS011;4203;48.144;14.118;2023-03-14T05:07:52;0.52;;;0.52;;
8331;SDS011;4203;48.144;14.118;2023-03-14T05:10:19;0.90;;;0.90;;
8331;SDS011;4203;48.144;14.118;2023-03-14T05:12:46;0.95;;;0.88;;
8331;SDS011;4203;48.144;14.118;2023-03-14T05:15:14;1.00;;;0.90;;
8331;SDS011;4203;48.144;14.118;2023-03-14T05:17:42;0.82;;;0.70;;
8331;SDS011;4203;48.144;14.118;2023-03-14T05:20:14;0.80;;;0.80;;
8331;SDS011;4203;48.144;14.118;2023-03-14T05:22:41;1.70;;;1.00;;
8331;SDS011;4203;48.144;14.118;2023-03-14T05:25:09;1.33;;;0.73;;
8331;SDS011;4203;48.144;14.118;2023-03-14T05:27:36;3.80;;;0.90;;
8331;SDS011;4203;48.144;14.118;2023-03-14T05:30:04;2.17;;;1.20;;
8331;SDS011;4203;48.144;14.118;2023-03-14T05:32:32;1.00;;;1.00;;
8331;SDS011;4203;48.144;14.118;2023-03-14T05:35:01;1.30;;;1.30;;
8331;SDS011;4203;48.144;14.118;2023-03-14T05:37:29;1.83;;;1.60;;
8331;SDS011;4203;48.144;14.118;2023-03-14T05:39:56;1.77;;;1.67;;
8331;SDS011;4203;48.144;14.118;2023-03-14T05:42:23;1.50;;;1.50;;
8331;SDS011;4203;48.144;14.118;2023-03-14T05:44:51;3.47;;;1.73;;
8331;SDS011;4203;48.144;14.118;2023-03-14T05:47:20;3.10;;;1.77;;
8331;SDS011;4203;48.144;14.118;2023-03-14T05:49:53;2.10;;;2.00;;
8331;SDS011;4203;48.144;14.118;2023-03-14T05:52:21;4.67;;;4.27;;
8331;SDS011;4203;48.144;14.118;2023-03-14T05:54:48;3.40;;;3.13;;
8331;SDS011;4203;48.144;14.118;2023-03-14T05:57:15;6.10;;;3.90;;
8331;SDS011;4203;48.144;14.118;2023-03-14T05:59:43;2.30;;;2.20;;
8331;SDS011;4203;48.144;14.118;2023-03-14T06:02:10;2.57;;;2.40;;
8331;SDS011;4203;48.144;14.118;2023-03-14T06:04:37;3.97;;;3.57;;
8331;SDS011;4203;48.144;14.118;2023-03-14T06:07:04;4.60;;;3.07;;
8331;SDS011;4203;48.144;14.118;2023-03-14T06:09:33;3.60;;;3.30;;
8331;SDS011;4203;48.144;14.118;2023-03-14T06:12:00;2.07;;;1.97;;
8331;SDS011;4203;48.144;14.118;2023-03-14T06:14:27;2.03;;;1.90;;
8331;SDS011;4203;48.144;14.118;2023-03-14T06:16:56;1.80;;;1.70;;
8331;SDS011;4203;48.144;14.118;2023-03-14T06:19:24;1.40;;;1.30;;
8331;SDS011;4203;48.144;14.118;2023-03-14T06:21:51;3.17;;;1.30;;
8331;SDS011;4203;48.144;14.118;2023-03-14T06:24:18;0.90;;;0.90;;
8331;SDS011;4203;48.144;14.118;2023-03-14T06:26:47;0.97;;;0.97;;
8331;SDS011;4203;48.144;14.118;2023-03-14T06:29:14;0.90;;;0.90;;
8331;SDS011;4203;48.144;14.118;2023-03-14T06:31:42;0.90;;;0.90;;
8331;SDS011;4203;48.144;14.118;2023-03-14T06:34:09;0.73;;;0.73;;
8331;SDS011;4203;48.144;14.118;2023-03-14T06:36:36;1.00;;;0.90;;
8331;SDS011;4203;48.144;14.118;2023-03-14T06:39:03;0.70;;;0.70;;
8331;SDS011;4203;48.144;14.118;2023-03-14T06:41:31;1.00;;;0.90;;
8331;SDS011;4203;48.144;14.118;2023-03-14T06:44:00;1.00;;;0.83;;
8331;SDS011;4203;48.144;14.118;2023-03-14T06:46:27;4.00;;;1.03;;
8331;SDS011;4203;48.144;14.118;2023-03-14T06:48:54;1.00;;;1.00;;
8331;SDS011;4203;48.144;14.118;2023-03-14T06:51:22;2.53;;;0.70;;
8331;SDS011;4203;48.144;14.118;2023-03-14T06:53:49;0.87;;;0.80;;
8331;SDS011;4203;48.144;14.118;2023-03-14T06:56:16;0.93;;;0.77;;
8331;SDS011;4203;48.144;14.118;2023-03-14T06:58:43;0.90;;;0.90;;
8331;SDS011;4203;48.144;14.118;2023-03-14T07:01:20;2.43;;;0.77;;
8331;SDS011;4203;48.144;14.118;2023-03-14T07:03:48;0.60;;;0.60;;
8331;SDS011;4203;48.144;14.118;2023-03-14T07:06:18;3.90;;;0.73;;
8331;SDS011;4203;48.144;14.118;2023-03-14T07:08:45;0.80;;;0.80;;
8331;SDS011;4203;48.144;14.118;2023-03-14T07:11:12;0.70;;;0.70;;
8331;SDS011;4203;48.144;14.118;2023-03-14T07:13:39;0.77;;;0.70;;
8331;SDS011;4203;48.144;14.118;2023-03-14T07:16:07;1.70;;;0.70;;
8331;SDS011;4203;48.144;14.118;2023-03-14T07:18:36;0.97;;;0.50;;
8331;SDS011;4203;48.144;14.118;2023-03-14T07:21:03;1.10;;;0.80;;
8331;SDS011;4203;48.144;14.118;2023-03-14T07:23:31;0.73;;;0.73;;
8331;SDS011;4203;48.144;14.118;2023-03-14T07:25:58;1.13;;;1.03;;
8331;SDS011;4203;48.144;14.118;2023-03-14T07:28:26;1.13;;;0.70;;
8331;SDS011;4203;48.144;14.118;2023-03-14T07:30:53;1.17;;;0.70;;
8331;SDS011;4203;48.144;14.118;2023-03-14T07:33:21;2.03;;;1.03;;
8331;SDS011;4203;48.144;14.118;2023-03-14T07:35:49;1.10;;;1.00;;
8331;SDS011;4203;48.144;14.118;2023-03-14T07:38:17;0.83;;;0.83;;
8331;SDS011;4203;48.144;14.118;2023-03-14T07:40:44;0.80;;;0.80;;
8331;SDS011;4203;48.144;14.118;2023-03-14T07:43:11;0.80;;;0.80;;
8331;SDS011;4203;48.144;14.118;2023-03-14T07:45:39;0.73;;;0.73;;
8331;SDS011;4203;48.144;14.118;2023-03-14T07:48:06;1.30;;;1.10;;
8331;SDS011;4203;48.144;14.118;2023-03-14T07:50:33;1.23;;;1.23;;
8331;SDS011;4203;48.144;14.118;2023-03-14T07:53:01;1.43;;;1.07;;
8331;SDS011;4203;48.144;14.118;2023-03-14T07:55:29;1.43;;;1.30;;
8331;SDS011;4203;48.144;14.118;2023-03-14T07:57:56;1.93;;;1.10;;
8331;SDS011;4203;48.144;14.118;2023-03-14T08:00:23;2.30;;;1.07;;
8331;SDS011;4203;48.144;14.118;2023-03-14T08:02:50;1.20;;;1.07;;
8331;SDS011;4203;48.144;14.118;2023-03-14T08:05:17;0.97;;;0.97;;
8331;SDS011;4203;48.144;14.118;2023-03-14T08:07:44;0.97;;;0.97;;
8331;SDS011;4203;48.144;14.118;2023-03-14T08:10:13;1.10;;;1.10;;
8331;SDS011;4203;48.144;14.118;2023-03-14T08:12:48;1.30;;;1.20;;
8331;SDS011;4203;48.144;14.118;2023-03-14T08:15:15;1.40;;;0.90;;
8331;SDS011;4203;48.144;14.118;2023-03-14T08:17:42;3.80;;;1.97;;
8331;SDS011;4203;48.144;14.118;2023-03-14T08:20:10;3.47;;;3.17;;
8331;SDS011;4203;48.144;14.118;2023-03-14T08:22:38;1.60;;;1.50;;
8331;SDS011;4203;48.144;14.118;2023-03-14T08:25:05;1.63;;;0.90;;
8331;SDS011;4203;48.144;14.118;2023-03-14T08:27:34;2.07;;;0.90;;
8331;SDS011;4203;48.144;14.118;2023-03-14T08:30:04;0.80;;;0.80;;
8331;SDS011;4203;48.144;14.118;2023-03-14T08:32:31;1.03;;;0.70;;
8331;SDS011;4203;48.144;14.118;2023-03-14T08:34:59;1.30;;;0.80;;
8331;SDS011;4203;48.144;14.118;2023-03-14T08:37:26;1.77;;;0.80;;
8331;SDS011;4203;48.144;14.118;2023-03-14T08:39:53;1.13;;;0.90;;
8331;SDS011;4203;48.144;14.118;2023-03-14T08:42:20;3.50;;;1.10;;
8331;SDS011;4203;48.144;14.118;2023-03-14T08:44:50;4.27;;;0.93;;
8331;SDS011;4203;48.144;14.118;2023-03-14T08:47:18;2.50;;;0.80;;
8331;SDS011;4203;48.144;14.118;2023-03-14T08:49:45;1.00;;;1.00;;
8331;SDS011;4203;48.144;14.118;2023-03-14T08:52:12;1.03;;;1.00;;
8331;SDS011;4203;48.144;14.118;2023-03-14T08:54:41;3.03;;;1.00;;
8331;SDS011;4203;48.144;14.118;2023-03-14T08:57:09;1.27;;;0.97;;
8331;SDS011;4203;48.144;14.118;2023-03-14T08:59:36;5.53;;;1.10;;
8331;SDS011;4203;48.144;14.118;2023-03-14T09:02:10;1.97;;;0.90;;
8331;SDS011;4203;48.144;14.118;2023-03-14T09:04:38;2.03;;;0.93;;
8331;SDS011;4203;48.144;14.118;2023-03-14T09:07:05;1.07;;;0.70;;
8331;SDS011;4203;48.144;14.118;2023-03-14T09:09:32;7.53;;;0.90;;
8331;SDS011;4203;48.144;14.118;2023-03-14T09:11:59;1.03;;;0.90;;
8331;SDS011;4203;48.144;14.118;2023-03-14T09:14:27;1.80;;;0.90;;
8331;SDS011;4203;48.144;14.118;2023-03-14T09:16:54;5.13;;;1.20;;
8331;SDS011;4203;48.144;14.118;2023-03-14T09:19:22;0.77;;;0.77;;
8331;SDS011;4203;48.144;14.118;2023-03-14T09:21:50;1.63;;;0.90;;
8331;SDS011;4203;48.144;14.118;2023-03-14T09:24:20;0.63;;;0.63;;
8331;SDS011;4203;48.144;14.118;2023-03-14T09:26:47;0.63;;;0.50;;
8331;SDS011;4203;48.144;14.118;2023-03-14T09:29:14;1.57;;;0.80;;
8331;SDS011;4203;48.144;14.118;2023-03-14T09:31:41;0.50;;;0.50;;
8331;SDS011;4203;48.144;14.118;2023-03-14T09:34:08;0.90;;;0.90;;
8331;SDS011;4203;48.144;14.118;2023-03-14T09:36:37;1.83;;;0.60;;
8331;SDS011;4203;48.144;14.118;2023-03-14T09:39:05;0.77;;;0.77;;
8331;SDS011;4203;48.144;14.118;2023-03-14T09:41:32;0.50;;;0.50;;
8331;SDS011;4203;48.144;14.118;2023-03-14T09:44:04;0.80;;;0.57;;
8331;SDS011;4203;48.144;14.118;2023-03-14T09:46:35;1.13;;;0.50;;
8331;SDS011;4203;48.144;14.118;2023-03-14T09:49:07;0.60;;;0.60;;
8331;SDS011;4203;48.144;14.118;2023-03-14T09:51:38;2.13;;;1.40;;
8331;SDS011;4203;48.144;14.118;2023-03-14T09:54:15;0.57;;;0.57;;
8331;SDS011;4203;48.144;14.118;2023-03-14T09:56:50;2.93;;;0.97;;
8331;SDS011;4203;48.144;14.118;2023-03-14T09:59:18;3.00;;;0.80;;
8331;SDS011;4203;48.144;14.118;2023-03-14T10:01:46;1.60;;;0.77;;
8331;SDS011;4203;48.144;14.118;2023-03-14T10:04:14;1.07;;;0.97;;
8331;SDS011;4203;48.144;14.118;2023-03-14T10:06:49;2.67;;;0.93;;
8331;SDS011;4203;48.144;14.118;2023-03-14T10:09:18;5.07;;;2.20;;
8331;SDS011;4203;48.144;14.118;2023-03-14T10:11:51;1.20;;;1.20;;
8331;SDS011;4203;48.144;14.118;2023-03-14T10:14:30;2.23;;;1.53;;
8331;SDS011;4203;48.144;14.118;2023-03-14T10:17:06;1.47;;;1.00;;
8331;SDS011;4203;48.144;14.118;2023-03-14T10:19:35;0.70;;;0.70;;
8331;SDS011;4203;48.144;14.118;2023-03-14T10:22:04;0.77;;;0.70;;
8331;SDS011;4203;48.144;14.118;2023-03-14T10:24:34;1.20;;;0.77;;
8331;SDS011;4203;48.144;14.118;2023-03-14T10:27:02;0.77;;;0.73;;
8331;SDS011;4203;48.144;14.118;2023-03-14T10:29:31;0.53;;;0.53;;
8331;SDS011;4203;48.144;14.118;2023-03-14T10:32:00;2.20;;;0.63;;
8331;SDS011;4203;48.144;14.118;2023-03-14T10:34:31;0.70;;;0.60;;
8331;SDS011;4203;48.144;14.118;2023-03-14T10:36:59;0.60;;;0.60;;
8331;SDS011;4203;48.144;14.118;2023-03-14T10:39:42;0.90;;;0.90;;
8331;SDS011;4203;48.144;14.118;2023-03-14T10:42:15;0.93;;;0.70;;
8331;SDS011;4203;48.144;14.118;2023-03-14T10:44:48;3.47;;;0.60;;
8331;SDS011;4203;48.144;14.118;2023-03-14T10:47:21;0.50;;;0.50;;
8331;SDS011;4203;48.144;14.118;2023-03-14T10:49:50;1.07;;;0.90;;
8331;SDS011;4203;48.144;14.118;2023-03-14T10:52:20;0.50;;;0.50;;
8331;SDS011;4203;48.144;14.118;2023-03-14T10:54:52;0.53;;;0.53;;
8331;SDS011;4203;48.144;14.118;2023-03-14T10:57:21;0.50;;;0.50;;
8331;SDS011;4203;48.144;14.118;2023-03-14T10:59:49;0.53;;;0.53;;
8331;SDS011;4203;48.144;14.118;2023-03-14T11:02:27;2.40;;;0.77;;
8331;SDS011;4203;48.144;14.118;2023-03-14T11:05:09;1.13;;;0.57;;
8331;SDS011;4203;48.144;14.118;2023-03-14T11:07:46;3.53;;;0.60;;
8331;SDS011;4203;48.144;14.118;2023-03-14T11:10:18;1.13;;;0.80;;
8331;SDS011;4203;48.144;14.118;2023-03-14T11:12:53;1.13;;;0.60;;
8331;SDS011;4203;48.144;14.118;2023-03-14T11:15:29;0.50;;;0.50;;
8331;SDS011;4203;48.144;14.118;2023-03-14T11:18:12;0.40;;;0.40;;
8331;SDS011;4203;48.144;14.118;2023-03-14T11:20:57;0.40;;;0.40;;
8331;SDS011;4203;48.144;14.118;2023-03-14T11:23:31;0.70;;;0.53;;
8331;SDS011;4203;48.144;14.118;2023-03-14T11:26:09;0.50;;;0.40;;
8331;SDS011;4203;48.144;14.118;2023-03-14T11:28:47;0.50;;;0.50;;
8331;SDS011;4203;48.144;14.118;2023-03-14T11:31:18;0.50;;;0.50;;
8331;SDS011;4203;48.144;14.118;2023-03-14T11:33:53;1.50;;;0.60;;
8331;SDS011;4203;48.144;14.118;2023-03-14T11:36:26;1.07;;;0.70;;
8331;SDS011;4203;48.144;14.118;2023-03-14T11:38:58;0.40;;;0.40;;
8331;SDS011;4203;48.144;14.118;2023-03-14T11:41:28;0.50;;;0.50;;
8331;SDS011;4203;48.144;14.118;2023-03-14T11:43:59;0.50;;;0.50;;
8331;SDS011;4203;48.144;14.118;2023-03-14T11:46:31;0.50;;;0.50;;
8331;SDS011;4203;48.144;14.118;2023-03-14T11:49:03;0.40;;;0.40;;
8331;SDS011;4203;48.144;14.118;2023-03-14T11:51:38;0.90;;;0.90;;
8331;SDS011;4203;48.144;14.118;2023-03-14T11:54:12;0.50;;;0.50;;
8331;SDS011;4203;48.144;14.118;2023-03-14T11:56:45;2.30;;;0.50;;
8331;SDS011;4203;48.144;14.118;2023-03-14T11:59:16;0.40;;;0.40;;
8331;SDS011;4203;48.144;14.118;2023-03-14T12:01:50;1.20;;;0.80;;
8331;SDS011;4203;48.144;14.118;2023-03-14T12:04:22;0.60;;;0.60;;
8331;SDS011;4203;48.144;14.118;2023-03-14T12:07:02;1.03;;;0.40;;
8331;SDS011;4203;48.144;14.118;2023-03-14T12:09:37;0.40;;;0.40;;
8331;SDS011;4203;48.144;14.118;2023-03-14T12:12:04;0.40;;;0.40;;
8331;SDS011;4203;48.144;14.118;2023-03-14T12:14:33;0.40;;;0.40;;
8331;SDS011;4203;48.144;14.118;2023-03-14T12:17:04;0.60;;;0.60;;
8331;SDS011;4203;48.144;14.118;2023-03-14T12:19:33;0.50;;;0.50;;
8331;SDS011;4203;48.144;14.118;2023-03-14T12:27:46;0.50;;;0.50;;
8331;SDS011;4203;48.144;14.118;2023-03-14T12:30:23;0.50;;;0.50;;
8331;SDS011;4203;48.144;14.118;2023-03-14T12:35:52;1.47;;;0.57;;
8331;SDS011;4203;48.144;14.118;2023-03-14T12:38:27;0.47;;;0.47;;
8331;SDS011;4203;48.144;14.118;2023-03-14T12:41:08;0.60;;;0.60;;
8331;SDS011;4203;48.144;14.118;2023-03-14T12:43:41;0.50;;;0.50;;
8331;SDS011;4203;48.144;14.118;2023-03-14T12:46:18;0.50;;;0.50;;
8331;SDS011;4203;48.144;14.118;2023-03-14T12:48:48;0.50;;;0.50;;
8331;SDS011;4203;48.144;14.118;2023-03-14T12:51:17;0.40;;;0.40;;
8331;SDS011;4203;48.144;14.118;2023-03-14T12:54:00;0.43;;;0.40;;
8331;SDS011;4203;48.144;14.118;2023-03-14T12:59:36;0.53;;;0.53;;
8331;SDS011;4203;48.144;14.118;2023-03-14T13:10:29;0.30;;;0.30;;
8331;SDS011;4203;48.144;14.118;2023-03-14T13:13:11;3.63;;;0.60;;
8331;SDS011;4203;48.144;14.118;2023-03-14T13:15:44;1.23;;;0.40;;
8331;SDS011;4203;48.144;14.118;2023-03-14T13:18:14;0.53;;;0.43;;
8331;SDS011;4203;48.144;14.118;2023-03-14T13:20:44;0.60;;;0.60;;
8331;SDS011;4203;48.144;14.118;2023-03-14T13:23:21;0.60;;;0.60;;
8331;SDS011;4203;48.144;14.118;2023-03-14T13:25:49;0.50;;;0.50;;
8331;SDS011;4203;48.144;14.118;2023-03-14T13:28:19;0.40;;;0.40;;
8331;SDS011;4203;48.144;14.118;2023-03-14T13:30:47;0.60;;;0.60;;
8331;SDS011;4203;48.144;14.118;2023-03-14T13:33:16;1.23;;;1.10;;
8331;SDS011;4203;48.144;14.118;2023-03-14T13:35:45;0.70;;;0.70;;
8331;SDS011;4203;48.144;14.118;2023-03-14T13:38:17;1.47;;;1.37;;
8331;SDS011;4203;48.144;14.118;2023-03-14T13:40:46;1.60;;;1.50;;
8331;SDS011;4203;48.144;14.118;2023-03-14T13:43:16;1.97;;;1.20;;
8331;SDS011;4203;48.144;14.118;2023-03-14T13:45:53;0.20;;;0.20;;
8331;SDS011;4203;48.144;14.118;2023-03-14T13:48:22;1.63;;;0.90;;
8331;SDS011;4203;48.144;14.118;2023-03-14T13:50:55;0.50;;;0.50;;
8331;SDS011;4203;48.144;14.118;2023-03-14T13:53:26;0.50;;;0.50;;
8331;SDS011;4203;48.144;14.118;2023-03-14T13:55:53;0.50;;;0.50;;
8331;SDS011;4203;48.144;14.118;2023-03-14T13:58:23;1.50;;;0.50;;
8331;SDS011;4203;48.144;14.118;2023-03-14T14:00:54;0.40;;;0.40;;
8331;SDS011;4203;48.144;14.118;2023-03-14T14:03:24;0.47;;;0.47;;
8331;SDS011;4203;48.144;14.118;2023-03-14T14:05:52;1.50;;;0.47;;
8331;SDS011;4203;48.144;14.118;2023-03-14T14:08:21;0.60;;;0.60;;
8331;SDS011;4203;48.144;14.118;2023-03-14T14:10:50;0.57;;;0.50;;
8331;SDS011;4203;48.144;14.118;2023-03-14T14:13:23;0.30;;;0.30;;
8331;SDS011;4203;48.144;14.118;2023-03-14T14:15:52;0.35;;;0.35;;
8331;SDS011;4203;48.144;14.118;2023-03-14T14:18:22;0.40;;;0.40;;
8331;SDS011;4203;48.144;14.118;2023-03-14T14:20:52;0.40;;;0.40;;
8331;SDS011;4203;48.144;14.118;2023-03-14T14:23:20;0.40;;;0.40;;
8331;SDS011;4203;48.144;14.118;2023-03-14T14:25:51;0.40;;;0.40;;
8331;SDS011;4203;48.144;14.118;2023-03-14T14:28:24;0.57;;;0.57;;
8331;SDS011;4203;48.144;14.118;2023-03-14T14:31:00;0.50;;;0.50;;
8331;SDS011;4203;48.144;14.118;2023-03-14T14:33:30;0.47;;;0.47;;
8331;SDS011;4203;48.144;14.118;2023-03-14T14:36:05;0.60;;;0.60;;
8331;SDS011;4203;48.144;14.118;2023-03-14T14:38:53;0.47;;;0.47;;
8331;SDS011;4203;48.144;14.118;2023-03-14T14:41:26;0.50;;;0.50;;
8331;SDS011;4203;48.144;14.118;2023-03-14T14:43:59;0.70;;;0.70;;
8331;SDS011;4203;48.144;14.118;2023-03-14T14:46:28;0.88;;;0.88;;
8331;SDS011;4203;48.144;14.118;2023-03-14T14:49:01;0.60;;;0.60;;
8331;SDS011;4203;48.144;14.118;2023-03-14T14:51:32;0.50;;;0.50;;
8331;SDS011;4203;48.144;14.118;2023-03-14T14:54:09;1.37;;;0.70;;
8331;SDS011;4203;48.144;14.118;2023-03-14T14:56:45;0.67;;;0.67;;
8331;SDS011;4203;48.144;14.118;2023-03-14T14:59:23;0.50;;;0.50;;
8331;SDS011;4203;48.144;14.118;2023-03-14T15:01:55;1.47;;;0.50;;
8331;SDS011;4203;48.144;14.118;2023-03-14T15:04:23;0.40;;;0.40;;
8331;SDS011;4203;48.144;14.118;2023-03-14T15:06:51;2.22;;;0.60;;
8331;SDS011;4203;48.144;14.118;2023-03-14T15:09:19;0.50;;;0.50;;
8331;SDS011;4203;48.144;14.118;2023-03-14T15:11:46;2.47;;;0.90;;
8331;SDS011;4203;48.144;14.118;2023-03-14T15:14:14;0.98;;;0.98;;
8331;SDS011;4203;48.144;14.118;2023-03-14T15:16:43;0.75;;;0.75;;
8331;SDS011;4203;48.144;14.118;2023-03-14T15:19:11;2.00;;;0.70;;
8331;SDS011;4203;48.144;14.118;2023-03-14T15:21:42;1.48;;;0.77;;
8331;SDS011;4203;48.144;14.118;2023-03-14T15:24:10;1.48;;;0.68;;
8331;SDS011;4203;48.144;14.118;2023-03-14T15:26:37;0.82;;;0.82;;
8331;SDS011;4203;48.144;14.118;2023-03-14T15:29:04;0.55;;;0.50;;
8331;SDS011;4203;48.144;14.118;2023-03-14T15:31:33;0.60;;;0.60;;